Roubaix, South Dakota
Current Conditions -  °F | °C
As of 7:55 AM on Thursday 30 Oct 2014 (Local Time) from KSPF Reporting Station
Clear Clear  
Wind Chill: 39°   Ceiling: Unl
Heat Index: 45°   Visibility: 10mi
Dew Point: 32°   Wind: 10mph
Humidity: 61%   Direction: 290°WNW
Pressure: 30.28"   Gusts: NA
Location:  44.2665°N, 103.672°W
Report Text: KSPF 301355Z AUTO 29009KT 10SM CLR 07/00 A3028 RMK AO2
Loading
Personal Weather Stations






























Interactive Weather Map
Tropical Storm Tracking
New forecast layout! Learn more

10-Day Weather Forecast

Advertisements
Track Severe Weather on mobile